Time;durP1;ratioP1;P1;durP2;ratioP2;P2;SDS_P1;SDS_P2;PMS_P1;PMS_P2;Temp;Humidity;BMP_temperature;BMP_pressure;BME280_temperature;BME280_humidity;BME280_pressure;Samples;Min_cycle;Max_cycle;Signal;HPM_P1;HPM_P2
2021/05/29 00:02:16;;;;;;;2.50;2.10;;;;;;;7.69;46.23;96096.16;5002176;28;20110;-65
2021/05/29 00:04:42;;;;;;;2.25;2.03;;;;;;;7.65;46.13;96108.03;5002751;28;20397;-65
2021/05/29 00:07:07;;;;;;;3.90;2.17;;;;;;;7.75;45.59;96092.88;5005463;28;20440;-65
2021/05/29 00:09:33;;;;;;;2.40;1.92;;;;;;;7.68;45.62;96099.75;5000178;28;20074;-65
2021/05/29 00:11:58;;;;;;;2.88;2.00;;;;;;;7.63;45.56;96108.16;5005006;28;20110;-65
2021/05/29 00:14:24;;;;;;;3.95;3.13;;;;;;;7.37;48.54;96106.19;4996307;28;20559;-65
2021/05/29 00:16:49;;;;;;;4.82;3.22;;;;;;;7.17;48.44;96105.41;5022982;28;20542;-66
2021/05/29 00:19:14;;;;;;;2.55;2.00;;;;;;;7.18;48.09;96119.50;4997735;28;20106;-66
2021/05/29 00:21:40;;;;;;;3.63;2.17;;;;;;;7.28;47.02;96110.53;5004942;28;20086;-65
2021/05/29 00:24:06;;;;;;;5.80;2.70;;;;;;;7.25;47.51;96107.34;5004097;28;20122;-65
2021/05/29 00:26:31;;;;;;;2.03;1.80;;;;;;;7.45;46.33;96110.75;5005890;28;20102;-66
2021/05/29 00:28:57;;;;;;;5.15;2.38;;;;;;;7.41;47.40;96106.72;5009851;28;20582;-66
2021/05/29 00:31:22;;;;;;;2.25;2.05;;;;;;;7.30;47.49;96104.25;5008372;28;20106;-66
2021/05/29 00:33:48;;;;;;;2.67;1.70;;;;;;;7.40;46.88;96103.25;5024517;28;20587;-67
2021/05/29 00:36:13;;;;;;;4.57;2.53;;;;;;;7.33;47.54;96101.31;5009014;28;20098;-66
2021/05/29 00:38:39;;;;;;;3.75;2.60;;;;;;;7.13;47.70;96102.22;5007016;28;20125;-66
2021/05/29 00:41:07;;;;;;;4.13;3.28;;;;;;;7.00;49.09;96102.53;5024542;28;20125;-66
2021/05/29 00:43:34;;;;;;;6.35;4.22;;;;;;;6.88;51.34;96103.69;5005449;28;20113;-66
2021/05/29 00:45:59;;;;;;;4.47;3.70;;;;;;;6.93;50.46;96105.91;5000039;28;20603;-66
2021/05/29 00:48:25;;;;;;;5.60;3.38;;;;;;;7.04;50.68;96102.25;4987360;28;20089;-66
2021/05/29 00:50:58;;;;;;;2.65;2.38;;;;;;;7.23;48.40;96102.19;5012868;28;20513;-66
2021/05/29 00:53:24;;;;;;;3.50;2.50;;;;;;;7.48;47.53;96099.84;4994778;28;20484;-66
2021/05/29 00:55:49;;;;;;;3.90;3.20;;;;;;;7.36;49.18;96096.56;4998600;28;20110;-66
2021/05/29 00:58:15;;;;;;;5.13;1.98;;;;;;;7.41;47.90;96099.59;4996318;28;20172;-66
2021/05/29 01:00:41;;;;;;;3.28;2.03;;;;;;;7.59;47.08;96100.66;5002569;28;20543;-66
2021/05/29 01:03:06;;;;;;;2.17;1.85;;;;;;;7.50;47.33;96094.41;5007914;28;20574;-66
2021/05/29 01:05:32;;;;;;;5.90;2.13;;;;;;;7.45;47.89;96099.31;5008240;28;20074;-66
2021/05/29 01:07:57;;;;;;;2.92;2.30;;;;;;;7.04;48.18;96092.47;5008728;28;20106;-66
2021/05/29 01:10:23;;;;;;;4.10;2.28;;;;;;;7.18;48.78;96095.66;5008658;28;20110;-66
2021/05/29 01:12:48;;;;;;;1.60;1.50;;;;;;;7.40;47.78;96092.66;5008451;28;20097;-66
2021/05/29 01:15:16;;;;;;;1.90;1.80;;;;;;;7.38;48.01;96096.44;5006167;28;20115;-66
2021/05/29 01:17:41;;;;;;;3.72;2.78;;;;;;;7.48;48.13;96099.84;5006614;28;20082;-66
2021/05/29 01:20:07;;;;;;;2.10;2.00;;;;;;;7.30;48.54;96093.66;5024176;28;20125;-66
2021/05/29 01:22:43;;;;;;;3.33;2.42;;;;;;;7.41;47.34;96094.31;4991912;28;20114;-66
2021/05/29 01:25:24;;;;;;;4.25;1.88;;;;;;;7.44;47.39;96093.19;4991891;28;20082;-66
2021/05/29 01:27:54;;;;;;;1.70;1.60;;;;;;;7.54;47.39;96093.97;5006745;28;20118;-66
2021/05/29 01:30:20;;;;;;;2.00;1.80;;;;;;;7.63;46.87;96086.13;5007743;28;20118;-66
2021/05/29 01:32:45;;;;;;;3.28;1.90;;;;;;;7.54;46.79;96093.13;5008387;28;20086;-66
2021/05/29 01:35:11;;;;;;;3.17;2.63;;;;;;;7.26;48.78;96091.31;5007103;28;20114;-66
2021/05/29 01:37:37;;;;;;;5.50;2.90;;;;;;;6.80;52.28;96090.34;5005510;28;20140;-66
2021/05/29 01:40:04;;;;;;;3.58;2.97;;;;;;;6.58;52.08;96094.94;5021459;28;20389;-66
2021/05/29 01:42:29;;;;;;;3.00;2.70;;;;;;;6.81;50.39;96097.28;5007940;28;20121;-66
2021/05/29 01:44:55;;;;;;;4.38;2.20;;;;;;;7.04;49.58;96099.59;5005571;28;20074;-66
2021/05/29 01:47:20;;;;;;;2.10;1.90;;;;;;;7.23;48.43;96099.53;4989864;28;20105;-66
2021/05/29 01:49:46;;;;;;;2.63;2.15;;;;;;;7.27;48.37;96095.63;5007750;28;20125;-66
2021/05/29 01:52:11;;;;;;;3.08;1.70;;;;;;;7.39;47.70;96092.78;5007147;28;20136;-66
2021/05/29 01:54:37;;;;;;;1.83;1.70;;;;;;;7.47;47.76;96090.25;5005907;28;20103;-66
2021/05/29 01:57:02;;;;;;;2.08;1.88;;;;;;;7.48;47.55;96091.91;5007415;28;20086;-66
2021/05/29 01:59:28;;;;;;;2.17;1.70;;;;;;;7.49;47.30;96080.34;4999771;28;20114;-66
2021/05/29 02:01:53;;;;;;;2.95;1.70;;;;;;;7.49;47.43;96080.34;5006294;28;20086;-66
2021/05/29 02:04:19;;;;;;;1.60;1.50;;;;;;;7.64;46.56;96074.53;5006838;28;20456;-66
2021/05/29 02:06:44;;;;;;;3.58;2.08;;;;;;;7.40;47.20;96079.41;5007348;28;20578;-66
2021/05/29 02:09:09;;;;;;;6.47;2.50;;;;;;;7.07;49.49;96078.97;5008035;28;20085;-66
2021/05/29 02:11:35;;;;;;;3.45;2.42;;;;;;;6.76;50.48;96073.88;4995036;28;20114;-66
2021/05/29 02:14:01;;;;;;;6.05;2.58;;;;;;;6.63;49.75;96076.84;5006801;28;20168;-66
2021/05/29 02:16:26;;;;;;;2.38;2.10;;;;;;;6.83;48.97;96072.34;5007224;28;20089;-66
2021/05/29 02:18:52;;;;;;;3.15;2.00;;;;;;;6.89;49.26;96071.78;5007124;28;20164;-66
2021/05/29 02:21:18;;;;;;;2.38;2.13;;;;;;;6.84;48.99;96070.53;4985624;28;20593;-66
2021/05/29 02:23:48;;;;;;;3.25;2.58;;;;;;;6.75;50.09;96074.88;5007497;28;20156;-66
2021/05/29 02:26:21;;;;;;;4.28;2.50;;;;;;;6.66;51.99;96071.25;5005979;28;20130;-66
2021/05/29 02:28:51;;;;;;;2.58;2.25;;;;;;;6.57;49.89;96077.41;5005995;28;20085;-66
2021/05/29 02:31:17;;;;;;;3.97;2.40;;;;;;;6.49;50.01;96078.94;5006916;28;20628;-66
2021/05/29 02:33:43;;;;;;;2.80;1.90;;;;;;;6.70;48.50;96074.47;5006803;28;20116;-66
2021/05/29 02:36:08;;;;;;;2.72;1.63;;;;;;;6.67;48.29;96080.03;5005833;28;20105;-66
2021/05/29 02:38:34;;;;;;;2.47;2.03;;;;;;;6.64;48.26;96086.47;5005230;28;20102;-66
2021/05/29 02:41:00;;;;;;;1.80;1.70;;;;;;;6.72;48.31;96083.94;5005369;28;20165;-66
2021/05/29 02:43:26;;;;;;;2.60;1.85;;;;;;;6.80;48.38;96080.56;5006024;28;20099;-66
2021/05/29 02:45:51;;;;;;;1.83;1.70;;;;;;;6.81;48.07;96084.06;5005662;28;20082;-66
2021/05/29 02:48:17;;;;;;;2.15;1.75;;;;;;;6.91;47.39;96081.38;5009733;28;20423;-66
2021/05/29 02:50:43;;;;;;;3.20;1.90;;;;;;;6.76;47.52;96085.31;5005529;28;20636;-66
2021/05/29 02:53:09;;;;;;;2.35;1.90;;;;;;;6.71;47.49;96084.06;4989514;28;20450;-66
2021/05/29 02:55:34;;;;;;;1.85;1.75;;;;;;;6.65;47.98;96093.41;5006004;28;20569;-66
2021/05/29 02:58:00;;;;;;;3.83;2.10;;;;;;;6.58;48.21;96092.31;5006489;28;20082;-66
2021/05/29 03:00:31;;;;;;;1.95;1.80;;;;;;;6.59;48.25;96091.31;4980701;28;20186;-66
2021/05/29 03:02:57;;;;;;;1.92;1.75;;;;;;;6.58;47.88;96100.25;5006215;28;20106;-66
2021/05/29 03:05:22;;;;;;;2.20;2.00;;;;;;;6.56;47.89;96096.91;4999376;28;20610;-66
2021/05/29 03:07:50;;;;;;;2.58;1.90;;;;;;;6.46;49.03;96097.72;5006361;28;20102;-66
2021/05/29 03:10:16;;;;;;;2.13;1.75;;;;;;;6.42;48.39;96093.69;5006267;28;20195;-66
2021/05/29 03:12:42;;;;;;;2.65;1.90;;;;;;;6.37;48.28;96098.56;5006685;28;20086;-66
2021/05/29 03:15:09;;;;;;;2.35;2.00;;;;;;;6.32;48.75;96095.50;5004712;28;20231;-66
2021/05/29 03:17:35;;;;;;;1.98;1.83;;;;;;;6.32;48.13;96095.50;5006540;28;20105;-66
2021/05/29 03:20:00;;;;;;;2.75;2.00;;;;;;;6.28;47.81;96097.59;5005176;28;20110;-66
2021/05/29 03:22:26;;;;;;;2.83;2.00;;;;;;;6.19;48.22;96093.13;5006449;28;20105;-66
2021/05/29 03:24:51;;;;;;;2.20;2.00;;;;;;;6.16;48.07;96096.91;5021154;28;20629;-66
2021/05/29 03:27:17;;;;;;;2.67;2.10;;;;;;;6.16;48.35;96098.69;5005568;28;20514;-66
2021/05/29 03:29:43;;;;;;;2.20;2.00;;;;;;;6.15;48.21;96097.03;5004763;28;20549;-65
2021/05/29 03:32:08;;;;;;;5.70;1.80;;;;;;;6.00;47.17;96100.06;5005466;28;20178;-66
2021/05/29 03:34:34;;;;;;;3.30;1.77;;;;;;;5.98;48.13;96104.63;5002467;28;20555;-66
2021/05/29 03:36:59;;;;;;;1.92;1.70;;;;;;;5.98;47.73;96105.50;5006852;28;20109;-66
2021/05/29 03:39:25;;;;;;;1.50;1.40;;;;;;;5.90;47.25;96102.69;5007890;28;20555;-66
2021/05/29 03:41:50;;;;;;;1.77;1.67;;;;;;;5.83;47.55;96106.84;5008869;28;20122;-66
2021/05/29 03:44:15;;;;;;;2.67;1.80;;;;;;;5.81;47.25;96106.13;5010778;28;20086;-66
2021/05/29 03:46:41;;;;;;;2.58;1.83;;;;;;;5.76;46.98;96109.22;5009320;28;20106;-66
2021/05/29 03:49:06;;;;;;;1.67;1.58;;;;;;;5.74;46.94;96109.34;5010585;28;20078;-66
2021/05/29 03:51:32;;;;;;;2.33;1.88;;;;;;;5.74;46.71;96111.97;5008331;28;20098;-66
2021/05/29 03:53:57;;;;;;;1.70;1.60;;;;;;;5.78;47.39;96109.06;5025130;28;20086;-66
2021/05/29 03:56:23;;;;;;;1.60;1.50;;;;;;;5.81;46.81;96108.78;5009624;28;20419;-66
2021/05/29 03:58:49;;;;;;;1.70;1.60;;;;;;;5.82;47.46;96113.94;5010052;28;20452;-66
2021/05/29 04:01:14;;;;;;;3.13;1.75;;;;;;;5.71;47.62;96111.41;4999429;28;20149;-66
2021/05/29 04:03:40;;;;;;;2.35;1.38;;;;;;;5.72;47.77;96113.09;5007998;28;20384;-66
2021/05/29 04:06:05;;;;;;;1.42;1.33;;;;;;;5.73;47.94;96117.41;5024481;28;20110;-65
2021/05/29 04:08:31;;;;;;;3.40;1.63;;;;;;;5.83;47.16;96110.34;5010476;28;20082;-65
2021/05/29 04:10:56;;;;;;;2.80;1.52;;;;;;;5.80;47.33;96118.53;5008159;28;20172;-66
2021/05/29 04:13:22;;;;;;;2.65;1.48;;;;;;;5.82;47.51;96113.94;5008782;28;20086;-66
2021/05/29 04:15:47;;;;;;;2.85;1.50;;;;;;;5.83;48.48;96117.41;5007862;28;20107;-66
2021/05/29 04:18:12;;;;;;;1.23;1.23;;;;;;;5.87;48.21;96118.81;5009174;28;20165;-66
2021/05/29 04:20:38;;;;;;;1.38;1.30;;;;;;;5.90;48.44;96121.19;5007916;28;20078;-66
2021/05/29 04:23:03;;;;;;;1.75;1.63;;;;;;;5.93;48.35;96126.22;5009159;28;20098;-66
2021/05/29 04:25:29;;;;;;;1.75;1.60;;;;;;;5.97;47.90;96124.97;4998349;28;20122;-66
2021/05/29 04:27:54;;;;;;;1.85;1.55;;;;;;;6.10;47.70;96127.38;5009865;28;20114;-66
2021/05/29 04:30:22;;;;;;;1.33;1.20;;;;;;;6.19;48.15;96122.22;5007727;28;20106;-66
2021/05/29 04:32:48;;;;;;;2.85;1.60;;;;;;;6.31;48.17;96117.63;5005394;28;20165;-66
2021/05/29 04:35:14;;;;;;;1.50;1.40;;;;;;;6.37;48.01;96123.19;5006935;28;20671;-66
2021/05/29 04:37:39;;;;;;;1.40;1.30;;;;;;;6.50;47.78;96128.22;4992021;28;20149;-66
2021/05/29 04:40:09;;;;;;;2.60;1.33;;;;;;;6.61;48.50;96139.66;5024063;28;20110;-66
2021/05/29 04:42:34;;;;;;;1.20;1.20;;;;;;;6.83;48.14;96133.22;4990202;28;20129;-66
2021/05/29 04:45:00;;;;;;;1.48;1.38;;;;;;;6.95;48.38;96130.41;5005288;28;20169;-66
2021/05/29 04:47:26;;;;;;;1.60;1.50;;;;;;;7.07;48.42;96134.56;4991129;28;20102;-66
2021/05/29 04:49:52;;;;;;;1.60;1.50;;;;;;;7.27;48.01;96135.34;5007785;28;20438;-66
2021/05/29 04:52:17;;;;;;;1.08;0.98;;;;;;;7.53;47.44;96134.72;5009242;28;20082;-66
2021/05/29 04:54:43;;;;;;;1.73;1.35;;;;;;;7.69;47.69;96138.56;5001438;28;20121;-66
2021/05/29 04:57:08;;;;;;;1.73;1.13;;;;;;;7.83;47.52;96134.59;5008531;28;20121;-66
2021/05/29 04:59:33;;;;;;;1.55;1.20;;;;;;;7.95;47.54;96132.56;5009200;28;20467;-66
2021/05/29 05:01:59;;;;;;;1.75;1.50;;;;;;;8.08;47.51;96140.16;5008364;28;20597;-66
2021/05/29 05:04:24;;;;;;;1.50;1.40;;;;;;;8.25;47.84;96135.03;5006242;28;20564;-66
2021/05/29 05:06:50;;;;;;;1.67;1.58;;;;;;;8.44;47.39;96142.03;5022841;28;20106;-66
2021/05/29 05:09:15;;;;;;;1.30;1.20;;;;;;;8.54;47.18;96140.13;5009066;28;20427;-67
2021/05/29 05:11:41;;;;;;;1.75;1.50;;;;;;;8.73;47.06;96145.41;5007246;28;20094;-66
2021/05/29 05:14:06;;;;;;;1.38;1.27;;;;;;;9.01;46.45;96148.81;5008348;28;20110;-66
2021/05/29 05:16:32;;;;;;;1.90;1.40;;;;;;;9.26;46.58;96150.81;5007056;28;20189;-66
2021/05/29 05:18:57;;;;;;;1.27;1.23;;;;;;;9.43;45.90;96157.06;5006519;28;20569;-66
2021/05/29 05:21:22;;;;;;;1.40;1.30;;;;;;;9.61;45.95;96159.63;5006421;28;20082;-66
2021/05/29 05:23:50;;;;;;;2.28;1.30;;;;;;;9.88;45.61;96154.25;5008606;28;20133;-66
2021/05/29 05:26:19;;;;;;;4.60;1.20;;;;;;;10.07;45.35;96156.69;5008003;28;20666;-66
2021/05/29 05:28:45;;;;;;;2.55;1.30;;;;;;;10.28;44.83;96154.59;5008687;28;20082;-66
2021/05/29 05:31:10;;;;;;;1.42;1.10;;;;;;;10.47;44.38;96161.44;4986141;28;20106;-66
2021/05/29 05:33:41;;;;;;;1.85;1.48;;;;;;;10.67;44.23;96153.16;5008073;28;20093;-67
2021/05/29 05:36:09;;;;;;;1.40;1.30;;;;;;;10.75;44.12;96153.97;5006044;28;20184;-66
2021/05/29 05:38:36;;;;;;;2.33;1.38;;;;;;;10.84;44.63;96160.16;5005983;28;20461;-66
2021/05/29 05:41:02;;;;;;;2.25;1.55;;;;;;;11.07;43.26;96164.81;5006626;28;20148;-66
2021/05/29 05:43:27;;;;;;;1.75;1.58;;;;;;;11.28;43.51;96162.66;5008294;28;20787;-66
2021/05/29 05:45:53;;;;;;;1.40;1.30;;;;;;;11.49;42.71;96159.47;5006706;28;20085;-66
2021/05/29 05:48:18;;;;;;;2.88;1.70;;;;;;;11.46;42.70;96159.78;5008504;28;20078;-66
2021/05/29 05:50:57;;;;;;;1.75;1.63;;;;;;;11.46;42.43;96157.13;5007220;28;20106;-66
2021/05/29 05:53:23;;;;;;;1.92;1.83;;;;;;;11.72;42.93;96164.03;5008696;28;20086;-66
2021/05/29 05:55:51;;;;;;;2.17;1.98;;;;;;;12.00;41.47;96167.09;4989932;28;20103;-66
2021/05/29 05:58:17;;;;;;;2.03;1.88;;;;;;;12.26;41.12;96170.50;5005122;28;20618;-66
2021/05/29 06:00:42;;;;;;;3.85;2.10;;;;;;;12.23;40.53;96170.84;5007269;28;20078;-66
2021/05/29 06:03:08;;;;;;;2.33;2.00;;;;;;;12.48;41.42;96171.53;5006983;28;20126;-66
2021/05/29 06:05:33;;;;;;;2.20;2.00;;;;;;;12.11;41.24;96178.44;5007374;28;20081;-66
2021/05/29 06:07:58;;;;;;;2.83;2.35;;;;;;;12.08;41.17;96173.44;5008042;28;20140;-66
2021/05/29 06:10:24;;;;;;;3.25;2.10;;;;;;;12.44;40.85;96180.09;5007030;28;20098;-66
2021/05/29 06:12:51;;;;;;;4.22;2.22;;;;;;;11.75;40.67;96174.34;5023245;28;20090;-66
2021/05/29 06:20:26;;;;;;;1.98;1.85;;;;;;;12.79;39.65;96184.03;5007826;28;20082;-66
2021/05/29 06:22:51;;;;;;;2.53;2.00;;;;;;;12.92;39.45;96185.28;5022712;28;20106;-66
2021/05/29 06:25:17;;;;;;;3.10;2.00;;;;;;;13.24;39.32;96186.03;5006883;28;20078;-66
2021/05/29 06:27:43;;;;;;;3.72;2.30;;;;;;;13.43;39.10;96183.88;5005560;28;20117;-66
2021/05/29 06:30:09;;;;;;;2.80;2.03;;;;;;;13.52;37.49;96197.97;5007576;28;20168;-66
2021/05/29 06:32:35;;;;;;;2.20;2.00;;;;;;;13.50;37.94;96186.63;5021057;28;20082;-67
2021/05/29 06:35:01;;;;;;;2.38;1.90;;;;;;;12.95;38.77;96184.91;5005146;28;20466;-66
2021/05/29 06:37:26;;;;;;;4.72;2.13;;;;;;;12.71;39.45;96191.28;5007017;28;20086;-66
2021/05/29 06:39:52;;;;;;;3.38;2.30;;;;;;;12.43;39.49;96195.28;5006888;28;20137;-66
2021/05/29 06:42:17;;;;;;;3.60;2.47;;;;;;;12.45;39.25;96187.09;5006543;28;20149;-66
2021/05/29 06:44:43;;;;;;;2.45;2.00;;;;;;;13.05;38.49;96190.88;4989609;28;20097;-66
2021/05/29 06:47:08;;;;;;;4.35;2.40;;;;;;;12.08;37.91;96190.28;5005885;28;20125;-66
2021/05/29 06:49:38;;;;;;;3.03;1.95;;;;;;;12.54;37.45;96183.34;5007533;28;20125;-66
2021/05/29 06:52:06;;;;;;;5.00;1.80;;;;;;;13.23;36.71;96187.06;5005165;28;20638;-66
2021/05/29 06:54:52;;;;;;;2.13;1.95;;;;;;;12.73;37.93;96194.59;5005138;28;20126;-66
2021/05/29 07:00:04;;;;;;;3.35;2.15;;;;;;;12.75;37.35;96192.59;5005381;28;20180;-66
2021/05/29 07:02:30;;;;;;;1.98;1.73;;;;;;;13.40;37.18;96190.38;4997803;28;20355;-66
2021/05/29 07:04:55;;;;;;;5.75;1.95;;;;;;;13.03;37.56;96189.41;5005976;28;20086;-66
2021/05/29 07:07:21;;;;;;;2.17;1.85;;;;;;;12.95;38.50;96190.25;5005060;28;20307;-66
2021/05/29 07:09:46;;;;;;;3.08;2.10;;;;;;;12.72;39.72;96196.41;5001848;28;20082;-66
2021/05/29 07:12:12;;;;;;;2.88;2.22;;;;;;;12.09;40.40;96194.63;5005400;28;20502;-66
2021/05/29 07:14:37;;;;;;;4.63;2.33;;;;;;;11.37;40.37;96204.28;5005526;28;20117;-66
2021/05/29 07:17:04;;;;;;;5.00;3.30;;;;;;;11.05;43.12;96212.09;5005032;28;20099;-66
2021/05/29 07:19:30;;;;;;;5.65;3.38;;;;;;;11.03;42.49;96207.94;5009038;28;20532;-66
2021/05/29 07:21:55;;;;;;;7.85;4.35;;;;;;;10.99;42.90;96210.09;5002659;28;20078;-66
2021/05/29 07:24:21;;;;;;;6.68;4.60;;;;;;;10.95;41.69;96214.91;5010082;28;20703;-66
2021/05/29 07:26:47;;;;;;;5.90;3.70;;;;;;;11.59;40.22;96225.94;5011293;28;20197;-66
2021/05/29 07:29:13;;;;;;;8.60;5.90;;;;;;;11.86;39.29;96206.00;5008288;28;20078;-66
2021/05/29 07:31:38;;;;;;;7.25;4.55;;;;;;;11.72;38.22;96215.56;4992721;28;20106;-66
2021/05/29 07:34:04;;;;;;;2.65;2.25;;;;;;;12.05;38.75;96211.09;5009457;28;20469;-66
2021/05/29 07:36:29;;;;;;;5.07;3.90;;;;;;;12.51;36.98;96213.09;5005895;28;20094;-66
2021/05/29 07:38:54;;;;;;;5.53;4.28;;;;;;;13.08;35.52;96211.06;4996452;28;20109;-66
2021/05/29 07:41:23;;;;;;;3.55;1.77;;;;;;;13.00;34.81;96211.97;4996915;28;20161;-66
2021/05/29 07:43:49;;;;;;;2.65;1.77;;;;;;;13.04;36.23;96212.44;4998755;28;20106;-66
2021/05/29 07:46:16;;;;;;;6.28;3.58;;;;;;;13.62;36.05;96219.09;4990790;28;20106;-66
2021/05/29 07:48:42;;;;;;;5.85;4.03;;;;;;;13.13;38.02;96215.88;4993304;28;20090;-66
2021/05/29 07:51:07;;;;;;;4.72;3.00;;;;;;;13.55;36.43;96213.66;4996807;28;20445;-66
2021/05/29 07:53:35;;;;;;;5.28;3.63;;;;;;;13.95;36.92;96214.25;4999476;28;20535;-66
2021/05/29 07:56:02;;;;;;;4.30;3.17;;;;;;;13.85;37.62;96220.88;4992599;28;20129;-66
2021/05/29 07:58:27;;;;;;;3.80;2.35;;;;;;;13.42;35.42;96215.13;4996448;28;20098;-66
2021/05/29 08:00:53;;;;;;;8.95;6.07;;;;;;;13.34;37.46;96212.53;5003936;28;20124;-66
2021/05/29 08:03:19;;;;;;;5.40;3.90;;;;;;;12.98;38.00;96223.81;5003614;28;20617;-66
2021/05/29 08:05:45;;;;;;;4.97;3.05;;;;;;;12.40;37.73;96222.31;5005042;28;20105;-66
2021/05/29 08:08:11;;;;;;;7.63;4.93;;;;;;;12.21;38.90;96224.41;5003915;28;20767;-66
2021/05/29 08:10:36;;;;;;;3.97;2.63;;;;;;;12.31;36.47;96232.25;5000353;28;20140;-66
2021/05/29 08:13:02;;;;;;;6.18;4.35;;;;;;;12.69;37.30;96230.69;5005367;28;20125;-66
2021/05/29 08:15:28;;;;;;;7.38;5.32;;;;;;;12.80;38.34;96227.59;5003453;28;20106;-66
2021/05/29 08:17:53;;;;;;;4.00;2.67;;;;;;;13.69;37.00;96233.41;5005246;28;20086;-66
2021/05/29 08:20:19;;;;;;;3.15;1.50;;;;;;;14.44;34.43;96228.06;5005686;28;20847;-66
2021/05/29 08:22:44;;;;;;;3.75;2.65;;;;;;;15.10;33.14;96231.66;5001810;28;20630;-66
2021/05/29 08:25:10;;;;;;;4.78;3.25;;;;;;;15.75;32.56;96227.28;4999722;28;20108;-66
2021/05/29 08:27:35;;;;;;;4.20;2.50;;;;;;;16.39;31.29;96229.91;5005558;28;20649;-66
2021/05/29 08:30:02;;;;;;;5.40;3.67;;;;;;;16.92;31.44;96225.72;5005294;28;20470;-66
2021/05/29 08:32:27;;;;;;;5.13;3.97;;;;;;;16.69;31.65;96234.97;5002404;28;20169;-66
2021/05/29 08:34:53;;;;;;;4.43;2.10;;;;;;;15.84;32.43;96236.00;5002951;28;20110;-66
2021/05/29 08:37:18;;;;;;;6.57;3.85;;;;;;;15.94;32.78;96241.84;4993890;28;20485;-66
2021/05/29 08:39:44;;;;;;;2.55;2.17;;;;;;;14.56;34.97;96246.34;5017601;28;20121;-66
2021/05/29 08:42:09;;;;;;;6.15;4.25;;;;;;;14.69;34.99;96251.84;5004806;28;20145;-66
2021/05/29 08:44:35;;;;;;;2.80;2.17;;;;;;;15.65;32.33;96241.03;5023060;28;20112;-66
2021/05/29 08:47:02;;;;;;;6.38;3.90;;;;;;;15.33;32.88;96244.03;5004695;28;20122;-65
2021/05/29 08:49:28;;;;;;;5.30;3.28;;;;;;;14.43;33.04;96255.03;4987758;28;20090;-66
2021/05/29 08:51:56;;;;;;;2.97;2.25;;;;;;;15.42;33.04;96250.13;5004081;28;20094;-66
2021/05/29 08:54:21;;;;;;;4.10;1.70;;;;;;;16.77;29.82;96239.34;5002241;28;20519;-66
2021/05/29 08:56:46;;;;;;;3.08;1.83;;;;;;;18.00;29.26;96239.25;5006220;28;20443;-66
2021/05/29 08:59:13;;;;;;;3.50;1.98;;;;;;;18.50;28.21;96245.09;5004010;28;20519;-66
2021/05/29 09:01:38;;;;;;;3.10;2.47;;;;;;;18.05;29.38;96243.97;4998894;28;20330;-66
2021/05/29 09:04:05;;;;;;;3.72;3.25;;;;;;;17.54;31.10;96236.34;5019489;28;20118;-66
2021/05/29 09:06:31;;;;;;;3.47;1.48;;;;;;;18.42;30.20;96232.66;4983202;28;20455;-66
2021/05/29 09:08:58;;;;;;;2.80;2.47;;;;;;;19.12;28.37;96235.66;5004330;28;20594;-67
2021/05/29 09:11:44;;;;;;;4.23;3.67;;;;;;;19.38;27.42;96233.84;5002646;28;20907;-66
2021/05/29 09:14:26;;;;;;;3.13;1.92;;;;;;;19.59;26.63;96230.75;5002713;28;20586;-66
2021/05/29 09:17:11;;;;;;;2.85;1.60;;;;;;;20.03;26.35;96234.53;5004379;28;20157;-66
2021/05/29 09:19:59;;;;;;;2.28;2.00;;;;;;;18.47;28.64;96238.25;4998882;28;20452;-66
2021/05/29 09:22:33;;;;;;;2.38;2.13;;;;;;;17.93;30.10;96246.50;5003901;28;20117;-66
2021/05/29 09:25:17;;;;;;;3.45;2.67;;;;;;;16.62;32.62;96245.69;5004193;28;20128;-66
2021/05/29 09:28:01;;;;;;;3.25;2.05;;;;;;;14.72;35.43;96256.81;5003563;28;20098;-66
2021/05/29 09:30:50;;;;;;;2.83;2.20;;;;;;;14.01;36.51;96252.03;4994512;28;20114;-66
2021/05/29 09:33:28;;;;;;;2.38;2.17;;;;;;;13.77;39.04;96256.59;5003203;28;20090;-65
2021/05/29 09:36:09;;;;;;;1.88;1.77;;;;;;;14.52;35.98;96250.41;4996655;28;20140;-65
2021/05/29 09:38:35;;;;;;;4.20;3.00;;;;;;;14.36;36.10;96254.97;5002236;28;20510;-66
2021/05/29 09:41:01;;;;;;;5.68;3.78;;;;;;;14.50;34.97;96249.75;5005069;28;20153;-66
2021/05/29 09:43:26;;;;;;;6.60;3.72;;;;;;;14.53;35.58;96254.75;5002307;28;20106;-66
2021/05/29 09:46:01;;;;;;;3.45;2.13;;;;;;;15.14;33.91;96244.69;5001731;28;20101;-66
2021/05/29 09:48:27;;;;;;;2.05;1.50;;;;;;;15.68;32.21;96243.34;5004477;28;20539;-66
2021/05/29 09:51:05;;;;;;;2.75;1.88;;;;;;;16.15;32.29;96242.81;5003283;28;20160;-66
2021/05/29 09:53:38;;;;;;;5.03;3.17;;;;;;;17.06;30.93;96236.53;5003601;28;20285;-66
2021/05/29 09:56:04;;;;;;;2.72;1.55;;;;;;;17.07;30.93;96248.94;4981622;28;20189;-66
2021/05/29 09:58:51;;;;;;;1.80;1.50;;;;;;;15.97;33.60;96246.81;4966581;28;20114;-66
2021/05/29 10:01:49;;;;;;;1.40;1.23;;;;;;;16.17;30.92;96240.72;4998222;28;20424;-66
2021/05/29 10:04:37;;;;;;;7.85;3.42;;;;;;;15.63;32.26;96243.06;5003593;28;20358;-65
2021/05/29 10:07:02;;;;;;;;;;;;;;;16.32;29.55;96235.22;5004150;28;20594;-66
2021/05/29 10:09:28;;;;;;;2.77;1.80;;;;;;;16.68;30.92;96240.53;5003983;28;19965;-66
2021/05/29 10:11:54;;;;;;;2.20;2.00;;;;;;;15.52;31.13;96238.22;5017756;28;20593;-66
2021/05/29 10:14:19;;;;;;;2.00;1.77;;;;;;;15.86;30.62;96231.25;4985226;28;20104;-65
2021/05/29 10:16:45;;;;;;;1.35;1.25;;;;;;;16.52;29.59;96229.97;5002480;28;20568;-66
2021/05/29 10:19:10;;;;;;;5.95;3.25;;;;;;;16.97;31.68;96234.03;4981242;28;20582;-65
2021/05/29 10:21:36;;;;;;;1.48;1.38;;;;;;;17.83;28.15;96230.75;5002214;28;20504;-65
2021/05/29 10:24:03;;;;;;;3.00;1.70;;;;;;;17.79;28.71;96233.00;4997692;28;20112;-65
2021/05/29 10:26:28;;;;;;;2.70;1.42;;;;;;;16.64;29.61;96240.13;5000274;28;20164;-65
2021/05/29 10:28:54;;;;;;;1.60;1.23;;;;;;;15.80;32.51;96234.72;5002310;28;20086;-65
2021/05/29 10:31:20;;;;;;;7.45;2.45;;;;;;;16.17;32.19;96235.34;5000742;28;20124;-66
2021/05/29 10:33:45;;;;;;;4.53;1.55;;;;;;;15.36;30.06;96235.63;5000954;28;20086;-65
2021/05/29 10:36:43;;;;;;;6.70;2.63;;;;;;;16.46;29.95;96233.44;5003437;28;20100;-65
2021/05/29 10:39:09;;;;;;;;;;;;;;;16.54;28.28;96226.22;5001018;28;20106;-67
2021/05/29 10:41:51;;;;;;;0.80;0.80;;;;;;;17.49;26.90;96233.47;4998282;28;20581;-65
2021/05/29 10:44:40;;;;;;;1.35;1.25;;;;;;;17.71;25.75;96229.72;4985292;28;20549;-65
2021/05/29 10:47:10;;;;;;;1.75;1.15;;;;;;;16.88;28.98;96230.69;4995584;28;20106;-65
2021/05/29 10:49:48;;;;;;;1.33;1.23;;;;;;;17.26;27.99;96223.09;4992544;28;20090;-65
2021/05/29 10:52:33;;;;;;;2.78;1.13;;;;;;;18.87;25.69;96225.66;4997712;28;20513;-65
2021/05/29 10:55:14;;;;;;;0.90;0.90;;;;;;;19.08;29.16;96229.88;4991012;28;20820;-65
2021/05/29 10:57:50;;;;;;;3.03;1.17;;;;;;;18.94;25.37;96227.25;4995387;28;20074;-65
2021/05/29 11:00:43;;;;;;;1.50;1.10;;;;;;;19.18;25.67;96214.00;4978932;28;20491;-66
2021/05/29 11:03:24;;;;;;;1.70;1.15;;;;;;;19.68;26.18;96217.78;4993014;28;20102;-66
2021/05/29 11:05:51;;;;;;;2.15;1.20;;;;;;;18.04;27.19;96221.63;4989702;28;20136;-65
2021/05/29 11:08:49;;;;;;;3.88;1.75;;;;;;;18.20;28.47;96221.34;4995857;28;20074;-65
2021/05/29 11:11:47;;;;;;;3.33;1.30;;;;;;;18.73;26.16;96211.41;4995599;28;20102;-65
2021/05/29 11:14:29;;;;;;;1.95;1.13;;;;;;;19.39;25.55;96208.50;5015564;28;20142;-65
2021/05/29 11:16:55;;;;;;;1.50;1.40;;;;;;;19.69;25.76;96202.44;4994494;28;21042;-66
2021/05/29 11:19:30;;;;;;;1.80;1.30;;;;;;;18.73;25.55;96214.91;4986708;28;20110;-65
2021/05/29 11:22:06;;;;;;;1.23;1.13;;;;;;;19.37;24.83;96214.13;4980381;28;20078;-65
2021/05/29 11:24:39;;;;;;;2.08;1.50;;;;;;;19.02;24.77;96220.78;4999338;28;20065;-65
2021/05/29 11:27:05;;;;;;;1.60;1.45;;;;;;;19.47;25.53;96210.91;4993664;28;20173;-65
2021/05/29 11:30:00;;;;;;;1.75;1.40;;;;;;;19.55;24.88;96207.13;4997789;28;20075;-65
2021/05/29 11:35:07;;;;;;;1.40;1.30;;;;;;;17.99;25.65;96217.91;4997514;28;20692;-65
2021/05/29 11:37:33;;;;;;;1.20;1.10;;;;;;;19.05;23.59;96208.72;5002281;28;20082;-65
2021/05/29 11:39:58;;;;;;;0.90;0.90;;;;;;;19.04;24.00;96201.69;4987343;28;20129;-65
2021/05/29 11:42:24;;;;;;;0.63;0.63;;;;;;;18.81;24.05;96203.91;5000399;28;20544;-65
2021/05/29 11:44:49;;;;;;;2.88;1.20;;;;;;;19.14;23.82;96204.69;4996083;28;20079;-65
2021/05/29 11:47:16;;;;;;;1.45;1.20;;;;;;;19.01;24.39;96210.22;5001588;28;20157;-65
2021/05/29 11:49:41;;;;;;;3.80;1.58;;;;;;;18.55;25.24;96211.06;4999671;28;20074;-65
2021/05/29 11:52:07;;;;;;;1.63;1.00;;;;;;;19.75;23.95;96198.00;4999896;28;20102;-66